sensor_id;sensor_type;location;lat;lon;timestamp;P1;durP1;ratioP1;P2;durP2;ratioP2
17566;SDS011;8901;52.088;5.084;2023-02-24T00:01:23;29.80;;;27.30;;
17566;SDS011;8901;52.088;5.084;2023-02-24T00:03:54;31.47;;;29.40;;
17566;SDS011;8901;52.088;5.084;2023-02-24T00:06:25;33.37;;;30.63;;
17566;SDS011;8901;52.088;5.084;2023-02-24T00:09:04;33.63;;;30.73;;
17566;SDS011;8901;52.088;5.084;2023-02-24T00:11:34;34.20;;;31.57;;
17566;SDS011;8901;52.088;5.084;2023-02-24T00:14:03;35.40;;;33.10;;
17566;SDS011;8901;52.088;5.084;2023-02-24T00:16:34;37.47;;;34.57;;
17566;SDS011;8901;52.088;5.084;2023-02-24T00:19:02;38.37;;;35.77;;
17566;SDS011;8901;52.088;5.084;2023-02-24T00:21:32;38.37;;;35.60;;
17566;SDS011;8901;52.088;5.084;2023-02-24T00:24:02;39.30;;;36.23;;
17566;SDS011;8901;52.088;5.084;2023-02-24T00:26:32;42.60;;;39.47;;
17566;SDS011;8901;52.088;5.084;2023-02-24T00:29:02;43.20;;;40.13;;
17566;SDS011;8901;52.088;5.084;2023-02-24T00:31:30;42.50;;;39.33;;
17566;SDS011;8901;52.088;5.084;2023-02-24T00:33:58;35.97;;;33.37;;
17566;SDS011;8901;52.088;5.084;2023-02-24T00:36:29;44.33;;;41.43;;
17566;SDS011;8901;52.088;5.084;2023-02-24T00:39:00;45.90;;;42.77;;
17566;SDS011;8901;52.088;5.084;2023-02-24T00:41:55;44.40;;;41.20;;
17566;SDS011;8901;52.088;5.084;2023-02-24T00:44:30;43.50;;;40.50;;
17566;SDS011;8901;52.088;5.084;2023-02-24T00:46:58;46.17;;;42.83;;
17566;SDS011;8901;52.088;5.084;2023-02-24T00:49:27;44.97;;;42.33;;
17566;SDS011;8901;52.088;5.084;2023-02-24T00:51:56;48.23;;;44.90;;
17566;SDS011;8901;52.088;5.084;2023-02-24T00:54:24;46.40;;;43.33;;
17566;SDS011;8901;52.088;5.084;2023-02-24T00:56:52;46.43;;;43.33;;
17566;SDS011;8901;52.088;5.084;2023-02-24T00:59:22;48.10;;;44.60;;
17566;SDS011;8901;52.088;5.084;2023-02-24T01:01:50;44.30;;;41.20;;
17566;SDS011;8901;52.088;5.084;2023-02-24T01:04:20;49.53;;;46.33;;
17566;SDS011;8901;52.088;5.084;2023-02-24T01:06:49;48.13;;;45.07;;
17566;SDS011;8901;52.088;5.084;2023-02-24T01:09:18;49.47;;;46.37;;
17566;SDS011;8901;52.088;5.084;2023-02-24T01:11:47;44.20;;;40.97;;
17566;SDS011;8901;52.088;5.084;2023-02-24T01:14:43;52.33;;;48.93;;
17566;SDS011;8901;52.088;5.084;2023-02-24T01:17:13;52.13;;;48.93;;
17566;SDS011;8901;52.088;5.084;2023-02-24T01:19:42;51.57;;;48.10;;
17566;SDS011;8901;52.088;5.084;2023-02-24T01:22:13;55.33;;;52.00;;
17566;SDS011;8901;52.088;5.084;2023-02-24T01:24:42;46.60;;;43.63;;
17566;SDS011;8901;52.088;5.084;2023-02-24T01:27:10;52.63;;;49.40;;
17566;SDS011;8901;52.088;5.084;2023-02-24T01:29:46;53.47;;;49.97;;
17566;SDS011;8901;52.088;5.084;2023-02-24T01:32:19;58.33;;;54.97;;
17566;SDS011;8901;52.088;5.084;2023-02-24T01:34:50;57.37;;;53.87;;
17566;SDS011;8901;52.088;5.084;2023-02-24T01:37:22;52.00;;;48.90;;
17566;SDS011;8901;52.088;5.084;2023-02-24T01:39:51;52.00;;;48.57;;
17566;SDS011;8901;52.088;5.084;2023-02-24T01:42:20;51.90;;;48.50;;
17566;SDS011;8901;52.088;5.084;2023-02-24T01:45:09;58.93;;;55.53;;
17566;SDS011;8901;52.088;5.084;2023-02-24T01:47:38;59.53;;;55.77;;
17566;SDS011;8901;52.088;5.084;2023-02-24T01:50:08;71.47;;;67.27;;
17566;SDS011;8901;52.088;5.084;2023-02-24T01:52:41;68.63;;;64.77;;
17566;SDS011;8901;52.088;5.084;2023-02-24T01:55:11;64.63;;;60.60;;
17566;SDS011;8901;52.088;5.084;2023-02-24T01:57:41;63.87;;;60.13;;
17566;SDS011;8901;52.088;5.084;2023-02-24T02:00:12;71.83;;;67.90;;
17566;SDS011;8901;52.088;5.084;2023-02-24T02:02:57;95.70;;;90.57;;
17566;SDS011;8901;52.088;5.084;2023-02-24T02:05:28;89.63;;;84.77;;
17566;SDS011;8901;52.088;5.084;2023-02-24T02:07:56;81.73;;;77.17;;
17566;SDS011;8901;52.088;5.084;2023-02-24T02:10:23;77.13;;;72.73;;
17566;SDS011;8901;52.088;5.084;2023-02-24T02:12:53;59.90;;;56.50;;
17566;SDS011;8901;52.088;5.084;2023-02-24T02:15:23;73.50;;;69.57;;
17566;SDS011;8901;52.088;5.084;2023-02-24T02:17:54;66.80;;;62.70;;
17566;SDS011;8901;52.088;5.084;2023-02-24T02:20:37;56.10;;;52.90;;
17566;SDS011;8901;52.088;5.084;2023-02-24T02:23:15;69.30;;;64.83;;
17566;SDS011;8901;52.088;5.084;2023-02-24T02:25:49;88.90;;;83.97;;
17566;SDS011;8901;52.088;5.084;2023-02-24T02:28:35;81.20;;;76.80;;
17566;SDS011;8901;52.088;5.084;2023-02-24T02:31:17;62.37;;;58.93;;
17566;SDS011;8901;52.088;5.084;2023-02-24T02:34:08;78.97;;;74.57;;
17566;SDS011;8901;52.088;5.084;2023-02-24T02:36:43;93.53;;;88.63;;
17566;SDS011;8901;52.088;5.084;2023-02-24T02:39:14;70.27;;;66.47;;
17566;SDS011;8901;52.088;5.084;2023-02-24T02:41:47;98.43;;;93.33;;
17566;SDS011;8901;52.088;5.084;2023-02-24T02:44:18;80.10;;;75.87;;
17566;SDS011;8901;52.088;5.084;2023-02-24T02:46:49;87.67;;;82.93;;
17566;SDS011;8901;52.088;5.084;2023-02-24T02:49:20;80.63;;;76.10;;
17566;SDS011;8901;52.088;5.084;2023-02-24T02:51:50;115.53;;;109.47;;
17566;SDS011;8901;52.088;5.084;2023-02-24T02:54:23;117.50;;;111.67;;
17566;SDS011;8901;52.088;5.084;2023-02-24T02:56:53;87.30;;;82.50;;
17566;SDS011;8901;52.088;5.084;2023-02-24T02:59:24;87.13;;;82.10;;
17566;SDS011;8901;52.088;5.084;2023-02-24T03:01:56;73.80;;;69.87;;
17566;SDS011;8901;52.088;5.084;2023-02-24T03:04:38;99.30;;;94.40;;
17566;SDS011;8901;52.088;5.084;2023-02-24T03:09:44;96.83;;;91.97;;
17566;SDS011;8901;52.088;5.084;2023-02-24T03:12:14;101.30;;;96.10;;
17566;SDS011;8901;52.088;5.084;2023-02-24T03:14:44;108.77;;;102.97;;
17566;SDS011;8901;52.088;5.084;2023-02-24T03:17:21;104.67;;;99.10;;
17566;SDS011;8901;52.088;5.084;2023-02-24T03:19:52;100.23;;;95.20;;
17566;SDS011;8901;52.088;5.084;2023-02-24T03:22:26;100.47;;;95.20;;
17566;SDS011;8901;52.088;5.084;2023-02-24T03:25:02;102.83;;;97.50;;
17566;SDS011;8901;52.088;5.084;2023-02-24T03:27:31;93.73;;;88.70;;
17566;SDS011;8901;52.088;5.084;2023-02-24T03:30:05;81.63;;;76.87;;
17566;SDS011;8901;52.088;5.084;2023-02-24T03:32:35;100.13;;;94.97;;
17566;SDS011;8901;52.088;5.084;2023-02-24T03:35:10;95.83;;;90.93;;
17566;SDS011;8901;52.088;5.084;2023-02-24T03:37:39;108.90;;;103.37;;
17566;SDS011;8901;52.088;5.084;2023-02-24T03:40:07;105.07;;;100.03;;
17566;SDS011;8901;52.088;5.084;2023-02-24T03:42:40;75.50;;;71.43;;
17566;SDS011;8901;52.088;5.084;2023-02-24T03:45:09;108.60;;;103.10;;
17566;SDS011;8901;52.088;5.084;2023-02-24T03:47:37;97.60;;;92.30;;
17566;SDS011;8901;52.088;5.084;2023-02-24T03:50:11;86.70;;;82.13;;
17566;SDS011;8901;52.088;5.084;2023-02-24T03:52:39;110.57;;;104.87;;
17566;SDS011;8901;52.088;5.084;2023-02-24T03:55:15;110.83;;;104.73;;
17566;SDS011;8901;52.088;5.084;2023-02-24T03:57:48;72.23;;;68.20;;
17566;SDS011;8901;52.088;5.084;2023-02-24T04:00:29;79.77;;;75.53;;
17566;SDS011;8901;52.088;5.084;2023-02-24T04:03:05;108.40;;;102.97;;
17566;SDS011;8901;52.088;5.084;2023-02-24T04:05:38;93.23;;;88.13;;
17566;SDS011;8901;52.088;5.084;2023-02-24T04:08:11;94.63;;;89.57;;
17566;SDS011;8901;52.088;5.084;2023-02-24T04:10:44;103.93;;;98.43;;
17566;SDS011;8901;52.088;5.084;2023-02-24T04:13:19;102.13;;;96.73;;
17566;SDS011;8901;52.088;5.084;2023-02-24T04:15:50;111.10;;;105.03;;
17566;SDS011;8901;52.088;5.084;2023-02-24T04:18:23;114.33;;;108.63;;
17566;SDS011;8901;52.088;5.084;2023-02-24T04:20:53;102.90;;;97.73;;
17566;SDS011;8901;52.088;5.084;2023-02-24T04:23:25;95.33;;;90.53;;
17566;SDS011;8901;52.088;5.084;2023-02-24T04:25:55;76.30;;;72.10;;
17566;SDS011;8901;52.088;5.084;2023-02-24T04:28:31;88.97;;;84.30;;
17566;SDS011;8901;52.088;5.084;2023-02-24T04:30:59;83.33;;;79.17;;
17566;SDS011;8901;52.088;5.084;2023-02-24T04:33:31;71.60;;;67.90;;
17566;SDS011;8901;52.088;5.084;2023-02-24T04:36:00;81.37;;;77.27;;
17566;SDS011;8901;52.088;5.084;2023-02-24T04:38:29;90.70;;;85.87;;
17566;SDS011;8901;52.088;5.084;2023-02-24T04:40:57;81.83;;;77.63;;
17566;SDS011;8901;52.088;5.084;2023-02-24T04:43:24;74.23;;;70.33;;
17566;SDS011;8901;52.088;5.084;2023-02-24T04:45:53;80.23;;;75.97;;
17566;SDS011;8901;52.088;5.084;2023-02-24T04:48:23;69.80;;;66.23;;
17566;SDS011;8901;52.088;5.084;2023-02-24T04:50:51;81.60;;;77.23;;
17566;SDS011;8901;52.088;5.084;2023-02-24T04:53:20;86.27;;;81.43;;
17566;SDS011;8901;52.088;5.084;2023-02-24T04:55:51;71.03;;;67.10;;
17566;SDS011;8901;52.088;5.084;2023-02-24T04:58:24;80.70;;;76.47;;
17566;SDS011;8901;52.088;5.084;2023-02-24T05:00:53;74.27;;;70.23;;
17566;SDS011;8901;52.088;5.084;2023-02-24T05:03:22;98.90;;;94.03;;
17566;SDS011;8901;52.088;5.084;2023-02-24T05:05:52;96.67;;;91.70;;
17566;SDS011;8901;52.088;5.084;2023-02-24T05:08:22;100.10;;;95.20;;
17566;SDS011;8901;52.088;5.084;2023-02-24T05:10:53;100.97;;;95.43;;
17566;SDS011;8901;52.088;5.084;2023-02-24T05:13:22;80.80;;;76.43;;
17566;SDS011;8901;52.088;5.084;2023-02-24T05:15:52;94.17;;;89.13;;
17566;SDS011;8901;52.088;5.084;2023-02-24T05:18:20;84.83;;;80.37;;
17566;SDS011;8901;52.088;5.084;2023-02-24T05:20:50;78.03;;;74.13;;
17566;SDS011;8901;52.088;5.084;2023-02-24T05:23:33;85.57;;;81.13;;
17566;SDS011;8901;52.088;5.084;2023-02-24T05:26:04;73.80;;;69.60;;
17566;SDS011;8901;52.088;5.084;2023-02-24T05:28:33;75.97;;;72.03;;
17566;SDS011;8901;52.088;5.084;2023-02-24T05:31:06;85.60;;;81.27;;
17566;SDS011;8901;52.088;5.084;2023-02-24T05:33:37;64.40;;;61.07;;
17566;SDS011;8901;52.088;5.084;2023-02-24T05:36:07;75.63;;;71.83;;
17566;SDS011;8901;52.088;5.084;2023-02-24T05:38:37;60.03;;;56.93;;
17566;SDS011;8901;52.088;5.084;2023-02-24T05:41:07;63.33;;;59.97;;
17566;SDS011;8901;52.088;5.084;2023-02-24T05:43:41;64.80;;;61.20;;
17566;SDS011;8901;52.088;5.084;2023-02-24T05:46:12;58.67;;;55.57;;
17566;SDS011;8901;52.088;5.084;2023-02-24T05:48:40;49.63;;;46.87;;
17566;SDS011;8901;52.088;5.084;2023-02-24T05:51:08;61.63;;;58.23;;
17566;SDS011;8901;52.088;5.084;2023-02-24T05:53:39;51.93;;;49.13;;
17566;SDS011;8901;52.088;5.084;2023-02-24T05:56:08;61.97;;;58.70;;
17566;SDS011;8901;52.088;5.084;2023-02-24T05:58:44;65.70;;;62.30;;
17566;SDS011;8901;52.088;5.084;2023-02-24T06:01:12;65.17;;;61.73;;
17566;SDS011;8901;52.088;5.084;2023-02-24T06:03:45;62.90;;;59.57;;
17566;SDS011;8901;52.088;5.084;2023-02-24T06:06:19;54.43;;;51.50;;
17566;SDS011;8901;52.088;5.084;2023-02-24T06:08:48;53.93;;;51.13;;
17566;SDS011;8901;52.088;5.084;2023-02-24T06:11:16;67.40;;;63.90;;
17566;SDS011;8901;52.088;5.084;2023-02-24T06:13:45;67.37;;;63.80;;
17566;SDS011;8901;52.088;5.084;2023-02-24T06:16:14;79.17;;;74.77;;
17566;SDS011;8901;52.088;5.084;2023-02-24T06:18:46;63.70;;;59.77;;
17566;SDS011;8901;52.088;5.084;2023-02-24T06:21:14;66.23;;;62.73;;
17566;SDS011;8901;52.088;5.084;2023-02-24T06:23:43;61.43;;;58.03;;
17566;SDS011;8901;52.088;5.084;2023-02-24T06:26:14;61.37;;;57.87;;
17566;SDS011;8901;52.088;5.084;2023-02-24T06:28:43;55.37;;;52.37;;
17566;SDS011;8901;52.088;5.084;2023-02-24T06:31:12;60.80;;;57.30;;
17566;SDS011;8901;52.088;5.084;2023-02-24T06:33:40;62.87;;;59.47;;
17566;SDS011;8901;52.088;5.084;2023-02-24T06:36:10;68.40;;;64.80;;
17566;SDS011;8901;52.088;5.084;2023-02-24T06:38:39;66.83;;;63.50;;
17566;SDS011;8901;52.088;5.084;2023-02-24T06:41:07;71.13;;;67.60;;
17566;SDS011;8901;52.088;5.084;2023-02-24T06:43:38;69.50;;;65.80;;
17566;SDS011;8901;52.088;5.084;2023-02-24T06:46:07;76.40;;;72.50;;
17566;SDS011;8901;52.088;5.084;2023-02-24T06:48:35;74.80;;;70.97;;
17566;SDS011;8901;52.088;5.084;2023-02-24T06:51:04;79.77;;;75.97;;
17566;SDS011;8901;52.088;5.084;2023-02-24T06:53:32;91.00;;;86.20;;
17566;SDS011;8901;52.088;5.084;2023-02-24T06:56:03;98.07;;;93.27;;
17566;SDS011;8901;52.088;5.084;2023-02-24T06:58:41;97.77;;;92.87;;
17566;SDS011;8901;52.088;5.084;2023-02-24T07:01:15;93.93;;;89.33;;
17566;SDS011;8901;52.088;5.084;2023-02-24T07:03:46;98.03;;;93.27;;
17566;SDS011;8901;52.088;5.084;2023-02-24T07:06:27;76.07;;;72.17;;
17566;SDS011;8901;52.088;5.084;2023-02-24T07:08:57;66.70;;;63.30;;
17566;SDS011;8901;52.088;5.084;2023-02-24T07:11:26;79.57;;;75.57;;
17566;SDS011;8901;52.088;5.084;2023-02-24T07:13:55;78.90;;;74.70;;
17566;SDS011;8901;52.088;5.084;2023-02-24T07:16:26;81.73;;;77.63;;
17566;SDS011;8901;52.088;5.084;2023-02-24T07:18:54;81.50;;;77.37;;
17566;SDS011;8901;52.088;5.084;2023-02-24T07:21:22;74.47;;;70.27;;
17566;SDS011;8901;52.088;5.084;2023-02-24T07:23:51;85.67;;;81.30;;
17566;SDS011;8901;52.088;5.084;2023-02-24T07:26:21;99.40;;;94.47;;
17566;SDS011;8901;52.088;5.084;2023-02-24T07:28:49;99.70;;;94.67;;
17566;SDS011;8901;52.088;5.084;2023-02-24T07:31:20;95.70;;;91.00;;
17566;SDS011;8901;52.088;5.084;2023-02-24T07:33:51;94.23;;;89.53;;
17566;SDS011;8901;52.088;5.084;2023-02-24T07:36:19;95.97;;;91.37;;
17566;SDS011;8901;52.088;5.084;2023-02-24T07:38:48;94.27;;;89.57;;
17566;SDS011;8901;52.088;5.084;2023-02-24T07:41:18;108.23;;;102.90;;
17566;SDS011;8901;52.088;5.084;2023-02-24T07:43:47;102.63;;;97.60;;
17566;SDS011;8901;52.088;5.084;2023-02-24T07:46:19;93.90;;;89.20;;
17566;SDS011;8901;52.088;5.084;2023-02-24T07:48:50;95.97;;;91.10;;
17566;SDS011;8901;52.088;5.084;2023-02-24T07:51:21;103.17;;;98.17;;
17566;SDS011;8901;52.088;5.084;2023-02-24T07:53:50;96.23;;;91.23;;
17566;SDS011;8901;52.088;5.084;2023-02-24T07:56:18;107.17;;;102.00;;
17566;SDS011;8901;52.088;5.084;2023-02-24T07:58:51;88.00;;;83.70;;
17566;SDS011;8901;52.088;5.084;2023-02-24T08:01:23;93.70;;;89.20;;
17566;SDS011;8901;52.088;5.084;2023-02-24T08:03:54;87.30;;;82.83;;
17566;SDS011;8901;52.088;5.084;2023-02-24T08:06:25;100.20;;;95.10;;
17566;SDS011;8901;52.088;5.084;2023-02-24T08:09:02;89.90;;;85.57;;
17566;SDS011;8901;52.088;5.084;2023-02-24T08:11:41;91.53;;;86.97;;
17566;SDS011;8901;52.088;5.084;2023-02-24T08:14:11;108.00;;;102.33;;
17566;SDS011;8901;52.088;5.084;2023-02-24T08:16:39;106.20;;;100.90;;
17566;SDS011;8901;52.088;5.084;2023-02-24T08:19:12;104.20;;;98.90;;
17566;SDS011;8901;52.088;5.084;2023-02-24T08:21:44;97.43;;;92.43;;
17566;SDS011;8901;52.088;5.084;2023-02-24T08:24:18;97.40;;;92.30;;
17566;SDS011;8901;52.088;5.084;2023-02-24T08:26:54;95.73;;;90.77;;
17566;SDS011;8901;52.088;5.084;2023-02-24T08:29:31;98.37;;;93.67;;
17566;SDS011;8901;52.088;5.084;2023-02-24T08:32:06;86.60;;;82.20;;
17566;SDS011;8901;52.088;5.084;2023-02-24T08:34:36;99.93;;;94.80;;
17566;SDS011;8901;52.088;5.084;2023-02-24T08:37:08;98.73;;;93.73;;
17566;SDS011;8901;52.088;5.084;2023-02-24T08:39:39;99.97;;;94.87;;
17566;SDS011;8901;52.088;5.084;2023-02-24T08:44:59;84.70;;;80.30;;
17566;SDS011;8901;52.088;5.084;2023-02-24T08:47:26;93.70;;;88.87;;
17566;SDS011;8901;52.088;5.084;2023-02-24T08:49:57;95.73;;;90.83;;
17566;SDS011;8901;52.088;5.084;2023-02-24T08:52:27;92.43;;;87.47;;
17566;SDS011;8901;52.088;5.084;2023-02-24T08:54:55;96.17;;;91.50;;
17566;SDS011;8901;52.088;5.084;2023-02-24T08:57:27;102.07;;;96.33;;
17566;SDS011;8901;52.088;5.084;2023-02-24T09:00:00;107.83;;;102.60;;
17566;SDS011;8901;52.088;5.084;2023-02-24T09:02:31;112.73;;;107.00;;
17566;SDS011;8901;52.088;5.084;2023-02-24T09:05:06;125.23;;;119.13;;
17566;SDS011;8901;52.088;5.084;2023-02-24T09:07:36;113.37;;;107.50;;
17566;SDS011;8901;52.088;5.084;2023-02-24T09:10:10;118.43;;;112.60;;
17566;SDS011;8901;52.088;5.084;2023-02-24T09:18:22;137.60;;;130.80;;
17566;SDS011;8901;52.088;5.084;2023-02-24T09:20:56;138.77;;;132.10;;
17566;SDS011;8901;52.088;5.084;2023-02-24T09:23:39;151.53;;;144.03;;
17566;SDS011;8901;52.088;5.084;2023-02-24T09:26:10;136.40;;;129.73;;
17566;SDS011;8901;52.088;5.084;2023-02-24T09:28:38;154.50;;;146.90;;
17566;SDS011;8901;52.088;5.084;2023-02-24T09:31:19;153.73;;;145.67;;
17566;SDS011;8901;52.088;5.084;2023-02-24T09:34:05;157.30;;;149.67;;
17566;SDS011;8901;52.088;5.084;2023-02-24T09:36:37;160.83;;;153.00;;
17566;SDS011;8901;52.088;5.084;2023-02-24T09:39:09;147.07;;;139.47;;
17566;SDS011;8901;52.088;5.084;2023-02-24T09:41:40;157.90;;;150.23;;
17566;SDS011;8901;52.088;5.084;2023-02-24T09:44:30;141.33;;;134.37;;
17566;SDS011;8901;52.088;5.084;2023-02-24T09:47:02;136.93;;;130.13;;
17566;SDS011;8901;52.088;5.084;2023-02-24T09:49:37;140.83;;;133.73;;
17566;SDS011;8901;52.088;5.084;2023-02-24T09:52:13;189.18;;;179.55;;
17566;SDS011;8901;52.088;5.084;2023-02-24T09:54:42;145.17;;;137.97;;
17566;SDS011;8901;52.088;5.084;2023-02-24T09:57:40;139.13;;;132.10;;
17566;SDS011;8901;52.088;5.084;2023-02-24T10:00:33;137.17;;;130.20;;
17566;SDS011;8901;52.088;5.084;2023-02-24T10:03:09;129.10;;;122.57;;
17566;SDS011;8901;52.088;5.084;2023-02-24T10:05:44;117.10;;;110.87;;
17566;SDS011;8901;52.088;5.084;2023-02-24T10:08:15;118.43;;;111.63;;
17566;SDS011;8901;52.088;5.084;2023-02-24T10:10:49;111.97;;;106.27;;
17566;SDS011;8901;52.088;5.084;2023-02-24T10:13:31;99.60;;;94.17;;
17566;SDS011;8901;52.088;5.084;2023-02-24T10:15:59;103.07;;;97.77;;
17566;SDS011;8901;52.088;5.084;2023-02-24T10:18:31;101.33;;;96.43;;
17566;SDS011;8901;52.088;5.084;2023-02-24T10:21:03;92.50;;;87.80;;
17566;SDS011;8901;52.088;5.084;2023-02-24T10:23:37;91.23;;;86.23;;
17566;SDS011;8901;52.088;5.084;2023-02-24T10:26:10;93.87;;;88.97;;
17566;SDS011;8901;52.088;5.084;2023-02-24T10:28:47;81.10;;;76.80;;
17566;SDS011;8901;52.088;5.084;2023-02-24T10:31:18;70.87;;;67.07;;
17566;SDS011;8901;52.088;5.084;2023-02-24T10:33:51;81.40;;;77.10;;
17566;SDS011;8901;52.088;5.084;2023-02-24T10:36:22;74.77;;;70.57;;
17566;SDS011;8901;52.088;5.084;2023-02-24T10:39:00;78.67;;;74.40;;
17566;SDS011;8901;52.088;5.084;2023-02-24T10:41:39;70.83;;;66.77;;
17566;SDS011;8901;52.088;5.084;2023-02-24T10:44:09;73.47;;;69.67;;
17566;SDS011;8901;52.088;5.084;2023-02-24T10:46:40;81.03;;;76.73;;
17566;SDS011;8901;52.088;5.084;2023-02-24T10:49:08;64.97;;;61.47;;
17566;SDS011;8901;52.088;5.084;2023-02-24T10:51:41;65.27;;;61.97;;
17566;SDS011;8901;52.088;5.084;2023-02-24T10:54:11;55.70;;;52.80;;
17566;SDS011;8901;52.088;5.084;2023-02-24T10:56:58;50.67;;;47.77;;
17566;SDS011;8901;52.088;5.084;2023-02-24T10:59:41;49.07;;;46.37;;
17566;SDS011;8901;52.088;5.084;2023-02-24T11:02:23;50.70;;;47.97;;
17566;SDS011;8901;52.088;5.084;2023-02-24T11:04:56;48.23;;;45.50;;
17566;SDS011;8901;52.088;5.084;2023-02-24T11:07:49;54.73;;;51.83;;
17566;SDS011;8901;52.088;5.084;2023-02-24T11:10:22;58.20;;;54.93;;
17566;SDS011;8901;52.088;5.084;2023-02-24T11:12:56;49.33;;;46.67;;
17566;SDS011;8901;52.088;5.084;2023-02-24T11:15:43;41.03;;;38.67;;
17566;SDS011;8901;52.088;5.084;2023-02-24T11:18:28;33.10;;;31.20;;
17566;SDS011;8901;52.088;5.084;2023-02-24T11:20:57;32.07;;;30.13;;
17566;SDS011;8901;52.088;5.084;2023-02-24T11:23:27;26.90;;;25.40;;
17566;SDS011;8901;52.088;5.084;2023-02-24T11:25:58;23.07;;;21.57;;
17566;SDS011;8901;52.088;5.084;2023-02-24T11:28:32;19.97;;;18.73;;
17566;SDS011;8901;52.088;5.084;2023-02-24T11:31:04;19.27;;;17.97;;
17566;SDS011;8901;52.088;5.084;2023-02-24T11:33:36;18.13;;;17.03;;
17566;SDS011;8901;52.088;5.084;2023-02-24T11:36:09;18.20;;;16.90;;
17566;SDS011;8901;52.088;5.084;2023-02-24T11:38:39;17.60;;;16.20;;
17566;SDS011;8901;52.088;5.084;2023-02-24T11:41:11;17.03;;;15.83;;
17566;SDS011;8901;52.088;5.084;2023-02-24T11:43:40;15.77;;;14.67;;
17566;SDS011;8901;52.088;5.084;2023-02-24T11:46:10;15.73;;;14.50;;
17566;SDS011;8901;52.088;5.084;2023-02-24T11:48:38;15.33;;;14.03;;
17566;SDS011;8901;52.088;5.084;2023-02-24T11:51:09;15.77;;;14.20;;
17566;SDS011;8901;52.088;5.084;2023-02-24T11:53:39;16.97;;;15.47;;
17566;SDS011;8901;52.088;5.084;2023-02-24T11:56:12;15.57;;;14.37;;
17566;SDS011;8901;52.088;5.084;2023-02-24T11:58:42;14.57;;;13.40;;
17566;SDS011;8901;52.088;5.084;2023-02-24T12:01:12;17.27;;;15.03;;
17566;SDS011;8901;52.088;5.084;2023-02-24T12:03:47;15.57;;;14.10;;
17566;SDS011;8901;52.088;5.084;2023-02-24T12:06:18;16.53;;;15.07;;
17566;SDS011;8901;52.088;5.084;2023-02-24T12:08:47;15.30;;;13.80;;
17566;SDS011;8901;52.088;5.084;2023-02-24T12:11:21;17.23;;;14.83;;
17566;SDS011;8901;52.088;5.084;2023-02-24T12:13:53;17.63;;;12.73;;
17566;SDS011;8901;52.088;5.084;2023-02-24T12:16:21;20.83;;;13.53;;
17566;SDS011;8901;52.088;5.084;2023-02-24T12:18:51;16.50;;;14.23;;
17566;SDS011;8901;52.088;5.084;2023-02-24T12:21:21;17.67;;;14.87;;
17566;SDS011;8901;52.088;5.084;2023-02-24T12:23:49;22.23;;;12.80;;
17566;SDS011;8901;52.088;5.084;2023-02-24T12:26:20;17.57;;;13.53;;
17566;SDS011;8901;52.088;5.084;2023-02-24T12:28:58;20.80;;;11.87;;
17566;SDS011;8901;52.088;5.084;2023-02-24T12:31:30;22.23;;;13.40;;
17566;SDS011;8901;52.088;5.084;2023-02-24T12:34:04;17.57;;;11.83;;
17566;SDS011;8901;52.088;5.084;2023-02-24T12:36:37;24.20;;;12.77;;
17566;SDS011;8901;52.088;5.084;2023-02-24T12:39:08;23.20;;;12.57;;
17566;SDS011;8901;52.088;5.084;2023-02-24T12:41:48;18.17;;;11.87;;
17566;SDS011;8901;52.088;5.084;2023-02-24T12:44:21;16.27;;;11.60;;
17566;SDS011;8901;52.088;5.084;2023-02-24T12:46:50;20.97;;;11.57;;
17566;SDS011;8901;52.088;5.084;2023-02-24T12:49:27;13.67;;;10.77;;
17566;SDS011;8901;52.088;5.084;2023-02-24T12:52:00;17.53;;;11.30;;
17566;SDS011;8901;52.088;5.084;2023-02-24T12:54:34;21.53;;;12.27;;
17566;SDS011;8901;52.088;5.084;2023-02-24T12:57:08;20.13;;;12.27;;
17566;SDS011;8901;52.088;5.084;2023-02-24T12:59:38;29.10;;;12.83;;
17566;SDS011;8901;52.088;5.084;2023-02-24T13:02:06;25.93;;;14.00;;
17566;SDS011;8901;52.088;5.084;2023-02-24T13:04:38;23.00;;;12.57;;
17566;SDS011;8901;52.088;5.084;2023-02-24T13:07:12;23.43;;;13.30;;
17566;SDS011;8901;52.088;5.084;2023-02-24T13:09:46;22.20;;;13.90;;
17566;SDS011;8901;52.088;5.084;2023-02-24T13:12:16;16.50;;;13.33;;
17566;SDS011;8901;52.088;5.084;2023-02-24T13:14:45;24.17;;;14.73;;
17566;SDS011;8901;52.088;5.084;2023-02-24T13:17:18;20.67;;;14.20;;
17566;SDS011;8901;52.088;5.084;2023-02-24T13:19:45;25.57;;;13.73;;
17566;SDS011;8901;52.088;5.084;2023-02-24T13:25:07;23.60;;;14.47;;
17566;SDS011;8901;52.088;5.084;2023-02-24T13:27:37;23.40;;;15.93;;
17566;SDS011;8901;52.088;5.084;2023-02-24T13:30:19;22.20;;;14.07;;
17566;SDS011;8901;52.088;5.084;2023-02-24T13:32:58;23.93;;;15.70;;
17566;SDS011;8901;52.088;5.084;2023-02-24T13:35:32;20.30;;;13.00;;
17566;SDS011;8901;52.088;5.084;2023-02-24T13:40:37;23.50;;;13.87;;
17566;SDS011;8901;52.088;5.084;2023-02-24T13:45:57;24.07;;;14.90;;
17566;SDS011;8901;52.088;5.084;2023-02-24T13:51:38;16.60;;;12.23;;
17566;SDS011;8901;52.088;5.084;2023-02-24T13:57:24;21.33;;;14.87;;
17566;SDS011;8901;52.088;5.084;2023-02-24T14:00:13;19.40;;;15.70;;
17566;SDS011;8901;52.088;5.084;2023-02-24T14:05:38;15.03;;;13.63;;
17566;SDS011;8901;52.088;5.084;2023-02-24T14:08:07;15.13;;;13.57;;
17566;SDS011;8901;52.088;5.084;2023-02-24T14:19:36;15.30;;;13.90;;
17566;SDS011;8901;52.088;5.084;2023-02-24T14:22:23;21.10;;;14.20;;
17566;SDS011;8901;52.088;5.084;2023-02-24T14:25:04;16.47;;;14.73;;
17566;SDS011;8901;52.088;5.084;2023-02-24T14:27:46;15.70;;;14.33;;
17566;SDS011;8901;52.088;5.084;2023-02-24T14:30:30;17.47;;;15.53;;
17566;SDS011;8901;52.088;5.084;2023-02-24T14:33:16;21.13;;;16.17;;
17566;SDS011;8901;52.088;5.084;2023-02-24T14:35:47;19.70;;;16.07;;
17566;SDS011;8901;52.088;5.084;2023-02-24T14:49:50;22.20;;;15.67;;
17566;SDS011;8901;52.088;5.084;2023-02-24T14:52:22;18.97;;;16.30;;
17566;SDS011;8901;52.088;5.084;2023-02-24T14:54:56;22.67;;;16.93;;
17566;SDS011;8901;52.088;5.084;2023-02-24T15:02:47;18.23;;;16.40;;
17566;SDS011;8901;52.088;5.084;2023-02-24T15:08:02;17.97;;;16.10;;
17566;SDS011;8901;52.088;5.084;2023-02-24T15:10:30;16.33;;;14.73;;
17566;SDS011;8901;52.088;5.084;2023-02-24T15:19:16;16.63;;;14.97;;
17566;SDS011;8901;52.088;5.084;2023-02-24T15:21:52;15.97;;;14.33;;
17566;SDS011;8901;52.088;5.084;2023-02-24T15:24:27;15.20;;;13.77;;
17566;SDS011;8901;52.088;5.084;2023-02-24T15:27:17;15.20;;;13.80;;
17566;SDS011;8901;52.088;5.084;2023-02-24T15:32:57;17.37;;;15.87;;
17566;SDS011;8901;52.088;5.084;2023-02-24T15:35:26;16.43;;;15.20;;
17566;SDS011;8901;52.088;5.084;2023-02-24T15:38:02;15.20;;;14.00;;
17566;SDS011;8901;52.088;5.084;2023-02-24T15:43:16;14.57;;;13.60;;
17566;SDS011;8901;52.088;5.084;2023-02-24T15:51:55;15.50;;;13.57;;
17566;SDS011;8901;52.088;5.084;2023-02-24T15:57:40;14.43;;;12.93;;
17566;SDS011;8901;52.088;5.084;2023-02-24T16:03:17;13.27;;;12.03;;
17566;SDS011;8901;52.088;5.084;2023-02-24T16:08:49;11.90;;;11.10;;
17566;SDS011;8901;52.088;5.084;2023-02-24T16:17:24;12.33;;;11.53;;
17566;SDS011;8901;52.088;5.084;2023-02-24T16:26:08;12.53;;;11.73;;
17566;SDS011;8901;52.088;5.084;2023-02-24T16:28:41;11.60;;;10.80;;
17566;SDS011;8901;52.088;5.084;2023-02-24T16:31:15;12.80;;;11.90;;
17566;SDS011;8901;52.088;5.084;2023-02-24T16:33:46;12.43;;;11.50;;
17566;SDS011;8901;52.088;5.084;2023-02-24T16:36:14;13.63;;;12.43;;
17566;SDS011;8901;52.088;5.084;2023-02-24T16:38:43;13.90;;;12.80;;